aviador You're here:

OMFJ Decoded Metar

FUJEIRAH in UNITED ARAB EMIRATES
Report Time2017-09-25 20:00:00
UTC Time2017-09-25 20:26:42
Flight Rules mvfr MVFR
Wind270° at 04 kt
W.Decomp.*RWY 29: 3.8 kt HW 1.4 kt LCW
W.Rank270° ranks 14
Current wind is below 270° avg. (7.9)
Visibility5000 m
Phenomena:Haze
Clouds:N/A
Expected CloudBase > 14,800 ft AGL from Temp-Dew spread
CeilingNone
Temp32°C (ISA +17)
Dew Point-5°C (9% RH)
Heat Index29.8°C
AAT28.0°C
QNH1006 hPa
Density Alt2,352 ft
Elevation92 ft
Report Wrong Elevation
Raw Report
OMFJ 252000Z 27004KT 5000 HZ NSC 32/M05 Q1006 RMK A2971=

Extra information for OMFJ:More info

Metar Taf Metar & Taf Last 4 Metars F.Rules Stats Wind Profile Meteogram Temp Stats Airport Information Weather charts Add Link Nearby VenuesMetar ALERT Operation Metar Decoded Social comments